SLVR/VVI METAR and TAF weather

Enter ICAO airport designator
Station Type Date Time Source
SLVR METAR 2019/12/06 14:00 UTC NOAA

SLVR 061400Z VRB02KT 9999 BKN070 24/17 Q1015


Station Type Date Time Source
SLVR Decoded METAR 2019/12/06 14:00 UTC NOAA

Viru-Viru, Bolivia (SLVR) 17-38S 063-08W
Dec 06, 2019 - 09:00 AM EST / 2019.12.06 1400 UTC
Wind: Variable at 2 MPH (2 KT):0
Visibility: greater than 7 mile(s):0
Sky conditions: mostly cloudy
Temperature: 75 F (24 C)
Dew Point: 62 F (17 C)
Relative Humidity: 64%
Pressure (altimeter): 29.97 in. Hg (1015 hPa)
ob: SLVR 061400Z VRB02KT 9999 BKN070 24/17 Q1015
cycle: 14

Station Type Date Time Source
SLVR TAF 2019/12/06 12:55 UTC NOAA

TAF SLVR 061055Z 0612/0712 VRB02KT 9999 SCT017 BKN070 TX32/0619Z TN18/0710Z
BECMG 0612/0615 34010KT SCT025 BKN080
TEMPO 0623/0701 FEW023 SCT070

Example: see airport list